createdAt,value
2023-02-11T00:00:04.957Z,97094.00
2023-02-11T00:00:14.996Z,97094.00
2023-02-11T00:00:24.970Z,97094.00
2023-02-11T00:00:35.074Z,97094.00
2023-02-11T00:00:45.022Z,97096.00
2023-02-11T00:00:55.006Z,97094.00
2023-02-11T00:01:05.011Z,97094.00
2023-02-11T00:01:15.035Z,97094.00
2023-02-11T00:01:25.041Z,97094.00
2023-02-11T00:01:35.050Z,97094.00
2023-02-11T00:01:45.061Z,97094.00
2023-02-11T00:01:55.060Z,97094.00
2023-02-11T00:02:05.067Z,97094.00
2023-02-11T00:02:15.098Z,97092.00
2023-02-11T00:02:25.099Z,97094.00
2023-02-11T00:02:35.147Z,97092.00
2023-02-11T00:02:47.728Z,97096.00
2023-02-11T00:02:55.113Z,97096.00
2023-02-11T00:03:05.120Z,97092.00
2023-02-11T00:03:15.190Z,97094.00
2023-02-11T00:03:25.135Z,97090.00
2023-02-11T00:03:35.158Z,97090.00
2023-02-11T00:03:45.179Z,97090.00
2023-02-11T00:03:55.108Z,97090.00
2023-02-11T00:04:05.087Z,97090.00
2023-02-11T00:04:15.093Z,97090.00
2023-02-11T00:04:25.092Z,97090.00
2023-02-11T00:04:35.092Z,97092.00
2023-02-11T00:04:45.112Z,97090.00
2023-02-11T00:04:55.105Z,97092.00
2023-02-11T00:05:05.103Z,97092.00
2023-02-11T00:05:15.104Z,97092.00
2023-02-11T00:05:25.088Z,97090.00
2023-02-11T00:05:35.172Z,97092.00
2023-02-11T00:05:45.095Z,97090.00
2023-02-11T00:05:55.094Z,97092.00
2023-02-11T00:06:05.094Z,97092.00
2023-02-11T00:06:15.097Z,97090.00
2023-02-11T00:06:25.120Z,97090.00
2023-02-11T00:06:35.094Z,97088.00
2023-02-11T00:06:45.093Z,97090.00
2023-02-11T00:06:55.103Z,97088.00
2023-02-11T00:07:05.102Z,97088.00
2023-02-11T00:07:15.110Z,97088.00
2023-02-11T00:07:25.096Z,97090.00
2023-02-11T00:07:35.096Z,97090.00
2023-02-11T00:07:45.106Z,97088.00
2023-02-11T00:07:55.106Z,97090.00
2023-02-11T00:08:05.099Z,97086.00
2023-02-11T00:08:15.130Z,97088.00
2023-02-11T00:08:25.090Z,97090.00
2023-02-11T00:08:35.090Z,97090.00
2023-02-11T00:08:45.099Z,97086.00
2023-02-11T00:08:55.092Z,97088.00
2023-02-11T00:09:05.100Z,97088.00
2023-02-11T00:09:15.096Z,97088.00
2023-02-11T00:09:25.085Z,97086.00
2023-02-11T00:09:35.093Z,97088.00
2023-02-11T00:09:45.103Z,97088.00
2023-02-11T00:09:55.096Z,97086.00
2023-02-11T00:10:05.111Z,97088.00
2023-02-11T00:10:15.068Z,97088.00
2023-02-11T00:10:25.091Z,97088.00
2023-02-11T00:10:35.071Z,97086.00
2023-02-11T00:10:45.165Z,97086.00
2023-02-11T00:10:55.080Z,97086.00
2023-02-11T00:11:05.088Z,97088.00
2023-02-11T00:11:15.093Z,97088.00
2023-02-11T00:11:25.053Z,97088.00
2023-02-11T00:11:35.077Z,97088.00
2023-02-11T00:11:45.060Z,97086.00
2023-02-11T00:11:55.071Z,97086.00
2023-02-11T00:12:05.071Z,97088.00
2023-02-11T00:12:15.063Z,97088.00
2023-02-11T00:12:25.069Z,97090.00
2023-02-11T00:12:35.071Z,97090.00
2023-02-11T00:12:45.071Z,97086.00
2023-02-11T00:12:55.077Z,97088.00
2023-02-11T00:13:05.061Z,97090.00
2023-02-11T00:13:15.080Z,97088.00
2023-02-11T00:13:25.070Z,97086.00
2023-02-11T00:13:35.075Z,97088.00
2023-02-11T00:13:45.060Z,97088.00
2023-02-11T00:13:55.115Z,97088.00
2023-02-11T00:14:05.108Z,97088.00
2023-02-11T00:14:15.082Z,97088.00
2023-02-11T00:14:25.130Z,97088.00
2023-02-11T00:14:35.129Z,97088.00
2023-02-11T00:14:45.131Z,97088.00
2023-02-11T00:14:55.144Z,97088.00
2023-02-11T00:15:05.147Z,97086.00
2023-02-11T00:15:15.157Z,97088.00
2023-02-11T00:15:25.177Z,97080.00
2023-02-11T00:15:35.177Z,97082.00
2023-02-11T00:15:45.272Z,97088.00
2023-02-11T00:15:55.203Z,97088.00
2023-02-11T00:16:05.210Z,97088.00
2023-02-11T00:16:15.223Z,97082.00
2023-02-11T00:16:25.264Z,97086.00
2023-02-11T00:16:35.334Z,97086.00
2023-02-11T00:16:45.290Z,97082.00
2023-02-11T00:16:55.307Z,97082.00
2023-02-11T00:17:05.248Z,97082.00
2023-02-11T00:17:15.252Z,97088.00
2023-02-11T00:17:25.286Z,97082.00
2023-02-11T00:17:35.269Z,97086.00
2023-02-11T00:17:45.283Z,97086.00
2023-02-11T00:17:55.296Z,97086.00
2023-02-11T00:18:05.313Z,97086.00
2023-02-11T00:18:15.315Z,97086.00
2023-02-11T00:18:25.326Z,97086.00
2023-02-11T00:18:35.328Z,97086.00
2023-02-11T00:18:45.331Z,97084.00
2023-02-11T00:18:55.356Z,97082.00
2023-02-11T00:19:05.358Z,97082.00
2023-02-11T00:19:15.347Z,97084.00
2023-02-11T00:19:25.372Z,97082.00
2023-02-11T00:19:35.400Z,97084.00
2023-02-11T00:19:45.369Z,97082.00
2023-02-11T00:19:55.418Z,97082.00
2023-02-11T00:20:07.916Z,97084.00
2023-02-11T00:20:15.430Z,97084.00
2023-02-11T00:20:25.413Z,97084.00
2023-02-11T00:20:35.423Z,97086.00
2023-02-11T00:20:45.468Z,97084.00
2023-02-11T00:20:55.415Z,97086.00
2023-02-11T00:21:05.401Z,97084.00
2023-02-11T00:21:15.389Z,97084.00
2023-02-11T00:21:25.411Z,97084.00
2023-02-11T00:21:35.377Z,97086.00
2023-02-11T00:21:45.393Z,97090.00
2023-02-11T00:21:55.403Z,97086.00
2023-02-11T00:22:05.387Z,97084.00
2023-02-11T00:22:15.397Z,97090.00
2023-02-11T00:22:25.384Z,97090.00
2023-02-11T00:22:35.392Z,97084.00
2023-02-11T00:22:45.412Z,97088.00
2023-02-11T00:22:55.401Z,97088.00
2023-02-11T00:23:05.395Z,97088.00
2023-02-11T00:23:15.405Z,97088.00
2023-02-11T00:23:25.403Z,97092.00
2023-02-11T00:23:35.393Z,97090.00
2023-02-11T00:23:45.391Z,97090.00
2023-02-11T00:23:55.388Z,97090.00
2023-02-11T00:24:05.386Z,97088.00
2023-02-11T00:24:15.402Z,97090.00
2023-02-11T00:24:25.394Z,97092.00
2023-02-11T00:24:35.392Z,97092.00
2023-02-11T00:24:45.392Z,97092.00
2023-02-11T00:24:55.401Z,97090.00
2023-02-11T00:25:05.392Z,97092.00
2023-02-11T00:25:15.405Z,97094.00
2023-02-11T00:25:25.402Z,97090.00
2023-02-11T00:25:35.386Z,97094.00
2023-02-11T00:25:45.410Z,97094.00
2023-02-11T00:25:55.416Z,97092.00
2023-02-11T00:26:05.373Z,97092.00
2023-02-11T00:26:15.379Z,97092.00
2023-02-11T00:26:25.396Z,97090.00
2023-02-11T00:26:35.404Z,97094.00
2023-02-11T00:26:45.383Z,97092.00
2023-02-11T00:26:55.377Z,97092.00
2023-02-11T00:27:05.365Z,97092.00
2023-02-11T00:27:15.379Z,97090.00
2023-02-11T00:27:25.367Z,97088.00
2023-02-11T00:27:35.362Z,97090.00
2023-02-11T00:27:45.411Z,97092.00
2023-02-11T00:27:55.405Z,97090.00
2023-02-11T00:28:05.430Z,97088.00
2023-02-11T00:28:15.410Z,97088.00
2023-02-11T00:28:25.423Z,97088.00
2023-02-11T00:28:35.409Z,97090.00
2023-02-11T00:28:45.387Z,97088.00
2023-02-11T00:28:55.384Z,97088.00
2023-02-11T00:29:05.370Z,97088.00
2023-02-11T00:29:15.383Z,97088.00
2023-02-11T00:29:25.375Z,97088.00
2023-02-11T00:29:35.376Z,97086.00
2023-02-11T00:29:45.363Z,97088.00
2023-02-11T00:29:55.380Z,97086.00
2023-02-11T00:30:05.369Z,97088.00
2023-02-11T00:30:15.358Z,97086.00
2023-02-11T00:30:25.391Z,97086.00
2023-02-11T00:30:35.484Z,97086.00
2023-02-11T00:30:45.473Z,97086.00
2023-02-11T00:30:55.488Z,97086.00
2023-02-11T00:31:05.592Z,97088.00
2023-02-11T00:31:15.501Z,97086.00
2023-02-11T00:31:25.578Z,97088.00
2023-02-11T00:31:35.509Z,97088.00
2023-02-11T00:31:45.541Z,97086.00
2023-02-11T00:31:55.562Z,97086.00
2023-02-11T00:32:05.380Z,97088.00
2023-02-11T00:32:15.384Z,97088.00
2023-02-11T00:32:25.393Z,97084.00
2023-02-11T00:32:35.406Z,97086.00
2023-02-11T00:32:45.381Z,97088.00
2023-02-11T00:32:55.382Z,97088.00
2023-02-11T00:33:05.392Z,97086.00
2023-02-11T00:33:15.372Z,97084.00
2023-02-11T00:33:25.404Z,97088.00
2023-02-11T00:33:35.389Z,97086.00
2023-02-11T00:33:45.382Z,97084.00
2023-02-11T00:33:55.386Z,97086.00
2023-02-11T00:34:05.393Z,97086.00
2023-02-11T00:34:15.384Z,97086.00
2023-02-11T00:34:25.402Z,97082.00
2023-02-11T00:34:35.380Z,97086.00
2023-02-11T00:34:45.394Z,97084.00
2023-02-11T00:34:55.451Z,97086.00
2023-02-11T00:35:05.391Z,97086.00
2023-02-11T00:35:15.400Z,97084.00
2023-02-11T00:35:25.383Z,97086.00
2023-02-11T00:35:35.364Z,97086.00
2023-02-11T00:35:45.394Z,97086.00
2023-02-11T00:35:55.378Z,97084.00
2023-02-11T00:36:05.432Z,97086.00
2023-02-11T00:36:15.404Z,97084.00
2023-02-11T00:36:25.398Z,97086.00
2023-02-11T00:36:35.366Z,97086.00
2023-02-11T00:36:45.378Z,97086.00
2023-02-11T00:36:55.383Z,97082.00
2023-02-11T00:37:05.385Z,97080.00
2023-02-11T00:37:15.363Z,97082.00
2023-02-11T00:37:25.352Z,97082.00
2023-02-11T00:37:35.368Z,97080.00
2023-02-11T00:37:45.360Z,97082.00
2023-02-11T00:37:55.362Z,97082.00
2023-02-11T00:38:05.369Z,97082.00
2023-02-11T00:38:15.381Z,97082.00
2023-02-11T00:38:25.365Z,97082.00
2023-02-11T00:38:35.355Z,97082.00
2023-02-11T00:38:45.394Z,97082.00
2023-02-11T00:38:55.404Z,97082.00
2023-02-11T00:39:05.396Z,97080.00
2023-02-11T00:39:15.421Z,97084.00
2023-02-11T00:39:25.418Z,97080.00
2023-02-11T00:39:35.434Z,97080.00
2023-02-11T00:39:45.472Z,97082.00
2023-02-11T00:39:55.438Z,97084.00
2023-02-11T00:40:06.839Z,97084.00
2023-02-11T00:40:15.431Z,97082.00
2023-02-11T00:40:25.637Z,97084.00
2023-02-11T00:40:35.595Z,97082.00
2023-02-11T00:40:45.641Z,97082.00
2023-02-11T00:40:55.605Z,97084.00
2023-02-11T00:41:05.683Z,97082.00
2023-02-11T00:41:15.589Z,97084.00
2023-02-11T00:41:25.589Z,97086.00
2023-02-11T00:41:35.607Z,97084.00
2023-02-11T00:41:45.605Z,97086.00
2023-02-11T00:41:55.602Z,97084.00
2023-02-11T00:42:05.599Z,97086.00
2023-02-11T00:42:15.616Z,97084.00
2023-02-11T00:42:25.609Z,97086.00
2023-02-11T00:42:35.607Z,97086.00
2023-02-11T00:42:45.603Z,97088.00
2023-02-11T00:42:55.606Z,97088.00
2023-02-11T00:43:05.599Z,97086.00
2023-02-11T00:43:15.588Z,97086.00
2023-02-11T00:43:25.599Z,97086.00
2023-02-11T00:43:35.612Z,97086.00
2023-02-11T00:43:45.610Z,97086.00
2023-02-11T00:43:55.614Z,97086.00
2023-02-11T00:44:05.593Z,97086.00
2023-02-11T00:44:15.606Z,97086.00
2023-02-11T00:44:25.629Z,97086.00
2023-02-11T00:44:35.611Z,97086.00
2023-02-11T00:44:45.595Z,97086.00
2023-02-11T00:44:55.597Z,97084.00
2023-02-11T00:45:05.631Z,97084.00
2023-02-11T00:45:15.619Z,97086.00
2023-02-11T00:45:25.577Z,97082.00
2023-02-11T00:45:35.597Z,97082.00
2023-02-11T00:45:45.618Z,97084.00
2023-02-11T00:45:55.643Z,97082.00
2023-02-11T00:46:05.625Z,97084.00
2023-02-11T00:46:15.688Z,97082.00
2023-02-11T00:46:25.718Z,97084.00
2023-02-11T00:46:35.694Z,97084.00
2023-02-11T00:46:45.705Z,97084.00
2023-02-11T00:46:55.662Z,97086.00
2023-02-11T00:47:05.665Z,97084.00
2023-02-11T00:47:15.652Z,97084.00
2023-02-11T00:47:25.686Z,97086.00
2023-02-11T00:47:35.672Z,97084.00
2023-02-11T00:47:45.678Z,97084.00
2023-02-11T00:47:55.720Z,97084.00
2023-02-11T00:48:05.713Z,97088.00
2023-02-11T00:48:15.689Z,97086.00
2023-02-11T00:48:25.744Z,97086.00
2023-02-11T00:48:35.734Z,97086.00
2023-02-11T00:48:45.765Z,97086.00
2023-02-11T00:48:55.762Z,97086.00
2023-02-11T00:49:05.752Z,97086.00
2023-02-11T00:49:15.768Z,97084.00
2023-02-11T00:49:25.792Z,97086.00
2023-02-11T00:49:35.780Z,97086.00
2023-02-11T00:49:45.771Z,97086.00
2023-02-11T00:49:55.814Z,97086.00
2023-02-11T00:50:05.791Z,97086.00
2023-02-11T00:50:15.819Z,97088.00
2023-02-11T00:50:25.832Z,97088.00
2023-02-11T00:50:35.857Z,97086.00
2023-02-11T00:50:45.844Z,97088.00
2023-02-11T00:50:55.975Z,97088.00
2023-02-11T00:51:05.967Z,97088.00
2023-02-11T00:51:16.010Z,97088.00
2023-02-11T00:51:25.960Z,97088.00
2023-02-11T00:51:35.999Z,97088.00
2023-02-11T00:51:45.973Z,97092.00
2023-02-11T00:51:55.949Z,97088.00
2023-02-11T00:52:05.957Z,97088.00
2023-02-11T00:52:15.988Z,97090.00
2023-02-11T00:52:25.947Z,97090.00
2023-02-11T00:52:35.974Z,97090.00
2023-02-11T00:52:45.961Z,97090.00
2023-02-11T00:52:55.948Z,97086.00
2023-02-11T00:53:05.971Z,97090.00
2023-02-11T00:53:15.966Z,97092.00
2023-02-11T00:53:25.977Z,97088.00
2023-02-11T00:53:35.971Z,97088.00
2023-02-11T00:53:46.006Z,97088.00
2023-02-11T00:53:56.012Z,97090.00
2023-02-11T00:54:06.000Z,97090.00
2023-02-11T00:54:16.002Z,97088.00
2023-02-11T00:54:27.859Z,97088.00
2023-02-11T00:54:36.043Z,97084.00
2023-02-11T00:54:46.032Z,97090.00
2023-02-11T00:54:56.063Z,97088.00
2023-02-11T00:55:06.026Z,97086.00
2023-02-11T00:55:16.037Z,97090.00
2023-02-11T00:55:26.001Z,97088.00
2023-02-11T00:55:36.035Z,97088.00
2023-02-11T00:55:46.019Z,97088.00
2023-02-11T00:55:56.013Z,97088.00
2023-02-11T00:56:06.043Z,97090.00
2023-02-11T00:56:16.013Z,97084.00
2023-02-11T00:56:26.075Z,97084.00
2023-02-11T00:56:36.011Z,97084.00
2023-02-11T00:56:46.020Z,97084.00
2023-02-11T00:56:56.027Z,97090.00
2023-02-11T00:57:06.019Z,97084.00
2023-02-11T00:57:16.012Z,97090.00
2023-02-11T00:57:26.005Z,97090.00
2023-02-11T00:57:36.012Z,97090.00
2023-02-11T00:57:46.038Z,97090.00
2023-02-11T00:57:56.042Z,97088.00
2023-02-11T00:58:06.022Z,97088.00
2023-02-11T00:58:16.017Z,97090.00
2023-02-11T00:58:26.015Z,97090.00
2023-02-11T00:58:36.018Z,97088.00
2023-02-11T00:58:46.012Z,97090.00
2023-02-11T00:58:56.022Z,97088.00
2023-02-11T00:59:06.019Z,97090.00
2023-02-11T00:59:16.025Z,97090.00
2023-02-11T00:59:26.042Z,97088.00
2023-02-11T00:59:36.027Z,97090.00
2023-02-11T00:59:46.008Z,97090.00
2023-02-11T00:59:56.001Z,97090.00
2023-02-11T01:00:06.027Z,97090.00
2023-02-11T01:00:16.024Z,97088.00
2023-02-11T01:00:26.013Z,97086.00
2023-02-11T01:00:36.025Z,97088.00
2023-02-11T01:00:46.013Z,97086.00
2023-02-11T01:00:56.032Z,97084.00
2023-02-11T01:01:06.070Z,97088.00
2023-02-11T01:01:16.089Z,97088.00
2023-02-11T01:01:26.050Z,97086.00
2023-02-11T01:01:36.132Z,97084.00
2023-02-11T01:01:46.074Z,97086.00
2023-02-11T01:01:56.018Z,97086.00
2023-02-11T01:02:06.013Z,97086.00
2023-02-11T01:02:16.013Z,97086.00
2023-02-11T01:02:26.017Z,97086.00
2023-02-11T01:02:35.994Z,97086.00
2023-02-11T01:02:46.003Z,97088.00
2023-02-11T01:02:56.016Z,97088.00
2023-02-11T01:03:05.996Z,97088.00
2023-02-11T01:03:15.995Z,97090.00
2023-02-11T01:03:26.001Z,97086.00
2023-02-11T01:03:35.991Z,97088.00
2023-02-11T01:03:46.016Z,97088.00
2023-02-11T01:03:56.005Z,97088.00
2023-02-11T01:04:05.987Z,97086.00
2023-02-11T01:04:15.991Z,97088.00
2023-02-11T01:04:25.995Z,97088.00
2023-02-11T01:04:35.999Z,97088.00
2023-02-11T01:04:45.993Z,97090.00
2023-02-11T01:04:56.077Z,97090.00
2023-02-11T01:05:06.023Z,97090.00
2023-02-11T01:05:16.044Z,97090.00
2023-02-11T01:05:26.033Z,97084.00
2023-02-11T01:05:36.023Z,97090.00
2023-02-11T01:05:46.010Z,97088.00
2023-02-11T01:05:55.992Z,97082.00
2023-02-11T01:06:05.995Z,97084.00
2023-02-11T01:06:16.003Z,97084.00
2023-02-11T01:06:26.019Z,97086.00
2023-02-11T01:06:36.003Z,97084.00
2023-02-11T01:06:46.047Z,97084.00
2023-02-11T01:06:56.006Z,97084.00
2023-02-11T01:07:06.000Z,97086.00
2023-02-11T01:07:16.013Z,97084.00
2023-02-11T01:07:26.002Z,97086.00
2023-02-11T01:07:36.003Z,97082.00
2023-02-11T01:07:45.994Z,97084.00
2023-02-11T01:07:55.998Z,97084.00
2023-02-11T01:08:06.014Z,97086.00
2023-02-11T01:08:16.001Z,97082.00
2023-02-11T01:08:26.009Z,97082.00
2023-02-11T01:08:35.999Z,97084.00
2023-02-11T01:08:45.982Z,97084.00
2023-02-11T01:08:55.978Z,97082.00
2023-02-11T01:09:05.967Z,97084.00
2023-02-11T01:09:15.985Z,97084.00
2023-02-11T01:09:26.005Z,97084.00
2023-02-11T01:09:35.976Z,97080.00
2023-02-11T01:09:45.985Z,97082.00
2023-02-11T01:09:55.997Z,97080.00
2023-02-11T01:10:05.990Z,97082.00
2023-02-11T01:10:16.015Z,97082.00
2023-02-11T01:10:26.008Z,97082.00
2023-02-11T01:10:36.000Z,97080.00
2023-02-11T01:10:46.024Z,97082.00
2023-02-11T01:10:56.017Z,97082.00
2023-02-11T01:11:06.019Z,97084.00
2023-02-11T01:11:16.042Z,97082.00
2023-02-11T01:11:26.038Z,97082.00
2023-02-11T01:11:36.033Z,97084.00
2023-02-11T01:11:46.189Z,97084.00
2023-02-11T01:11:56.083Z,97084.00
2023-02-11T01:12:06.056Z,97084.00
2023-02-11T01:12:16.107Z,97084.00
2023-02-11T01:12:26.081Z,97082.00
2023-02-11T01:12:36.634Z,97084.00
2023-02-11T01:12:46.342Z,97082.00
2023-02-11T01:12:56.332Z,97082.00
2023-02-11T01:13:06.366Z,97082.00
2023-02-11T01:13:16.365Z,97084.00
2023-02-11T01:13:26.351Z,97084.00
2023-02-11T01:13:36.334Z,97082.00
2023-02-11T01:13:46.356Z,97082.00
2023-02-11T01:13:56.343Z,97082.00
2023-02-11T01:14:06.338Z,97084.00
2023-02-11T01:14:16.370Z,97084.00
2023-02-11T01:14:26.355Z,97082.00
2023-02-11T01:14:36.339Z,97082.00
2023-02-11T01:14:46.325Z,97084.00
2023-02-11T01:14:56.312Z,97082.00
2023-02-11T01:15:06.343Z,97082.00
2023-02-11T01:15:16.370Z,97082.00
2023-02-11T01:15:26.312Z,97080.00
2023-02-11T01:15:36.405Z,97080.00
2023-02-11T01:15:46.361Z,97084.00
2023-02-11T01:15:56.395Z,97080.00
2023-02-11T01:16:06.387Z,97082.00
2023-02-11T01:16:16.349Z,97080.00
2023-02-11T01:16:26.408Z,97080.00
2023-02-11T01:16:36.345Z,97080.00
2023-02-11T01:16:46.420Z,97078.00
2023-02-11T01:16:56.322Z,97080.00
2023-02-11T01:17:06.329Z,97080.00
2023-02-11T01:17:16.328Z,97080.00
2023-02-11T01:17:26.307Z,97080.00
2023-02-11T01:17:36.348Z,97080.00
2023-02-11T01:17:46.316Z,97078.00
2023-02-11T01:17:56.323Z,97078.00
2023-02-11T01:18:06.335Z,97080.00
2023-02-11T01:18:16.337Z,97078.00
2023-02-11T01:18:26.331Z,97080.00
2023-02-11T01:18:36.330Z,97078.00
2023-02-11T01:18:46.363Z,97078.00
2023-02-11T01:18:56.348Z,97076.00
2023-02-11T01:19:06.352Z,97078.00
2023-02-11T01:19:16.364Z,97078.00
2023-02-11T01:19:26.365Z,97078.00
2023-02-11T01:19:36.370Z,97078.00
2023-02-11T01:19:46.386Z,97076.00
2023-02-11T01:19:56.377Z,97076.00
2023-02-11T01:20:06.385Z,97076.00
2023-02-11T01:20:16.406Z,97076.00
2023-02-11T01:20:26.404Z,97076.00
2023-02-11T01:20:36.399Z,97076.00
2023-02-11T01:20:46.446Z,97078.00
2023-02-11T01:20:56.454Z,97074.00
2023-02-11T01:21:06.421Z,97078.00
2023-02-11T01:21:16.462Z,97078.00
2023-02-11T01:21:26.463Z,97078.00
2023-02-11T01:21:36.462Z,97076.00
2023-02-11T01:21:46.597Z,97076.00
2023-02-11T01:21:56.485Z,97076.00
2023-02-11T01:22:06.498Z,97076.00
2023-02-11T01:22:16.507Z,97074.00
2023-02-11T01:22:26.527Z,97074.00
2023-02-11T01:22:36.523Z,97072.00
2023-02-11T01:22:46.562Z,97074.00
2023-02-11T01:22:56.549Z,97072.00
2023-02-11T01:23:06.539Z,97074.00
2023-02-11T01:23:16.557Z,97072.00
2023-02-11T01:23:26.562Z,97074.00
2023-02-11T01:23:36.563Z,97074.00
2023-02-11T01:23:46.590Z,97072.00
2023-02-11T01:23:56.585Z,97072.00
2023-02-11T01:24:06.588Z,97070.00
2023-02-11T01:24:16.621Z,97074.00
2023-02-11T01:24:26.601Z,97072.00
2023-02-11T01:24:36.608Z,97070.00
2023-02-11T01:24:46.646Z,97072.00
2023-02-11T01:24:56.627Z,97070.00
2023-02-11T01:25:06.635Z,97072.00
2023-02-11T01:25:16.669Z,97070.00
2023-02-11T01:25:26.662Z,97072.00
2023-02-11T01:25:36.665Z,97072.00
2023-02-11T01:25:46.711Z,97070.00
2023-02-11T01:25:56.679Z,97068.00
2023-02-11T01:26:06.671Z,97070.00
2023-02-11T01:26:16.713Z,97072.00
2023-02-11T01:26:26.705Z,97070.00
2023-02-11T01:26:36.702Z,97070.00
2023-02-11T01:26:46.803Z,97072.00
2023-02-11T01:26:56.701Z,97072.00
2023-02-11T01:27:06.732Z,97072.00
2023-02-11T01:27:16.768Z,97072.00
2023-02-11T01:27:26.767Z,97074.00
2023-02-11T01:27:36.776Z,97070.00
2023-02-11T01:27:46.795Z,97072.00
2023-02-11T01:27:56.821Z,97072.00
2023-02-11T01:28:06.850Z,97074.00
2023-02-11T01:28:16.870Z,97072.00
2023-02-11T01:28:26.876Z,97072.00
2023-02-11T01:28:36.849Z,97074.00
2023-02-11T01:28:46.870Z,97072.00
2023-02-11T01:28:56.843Z,97072.00
2023-02-11T01:29:06.844Z,97072.00
2023-02-11T01:29:16.878Z,97074.00
2023-02-11T01:29:26.864Z,97074.00
2023-02-11T01:29:36.861Z,97070.00
2023-02-11T01:29:46.982Z,97074.00
2023-02-11T01:29:56.981Z,97072.00
2023-02-11T01:30:06.968Z,97072.00
2023-02-11T01:30:16.960Z,97072.00
2023-02-11T01:30:26.958Z,97072.00
2023-02-11T01:30:36.961Z,97070.00
2023-02-11T01:30:47.049Z,97072.00
2023-02-11T01:30:56.996Z,97070.00
2023-02-11T01:31:07.018Z,97072.00
2023-02-11T01:31:17.006Z,97072.00
2023-02-11T01:31:27.013Z,97070.00
2023-02-11T01:31:37.033Z,97068.00
2023-02-11T01:31:47.056Z,97072.00
2023-02-11T01:31:57.001Z,97070.00
2023-02-11T01:32:07.006Z,97072.00
2023-02-11T01:32:17.035Z,97070.00
2023-02-11T01:32:27.036Z,97070.00
2023-02-11T01:32:36.992Z,97070.00
2023-02-11T01:32:47.044Z,97068.00
2023-02-11T01:32:57.040Z,97068.00
2023-02-11T01:33:07.049Z,97068.00
2023-02-11T01:33:17.075Z,97070.00
2023-02-11T01:33:27.065Z,97072.00
2023-02-11T01:33:37.074Z,97074.00
2023-02-11T01:33:47.085Z,97072.00
2023-02-11T01:33:57.090Z,97072.00
2023-02-11T01:34:07.068Z,97072.00
2023-02-11T01:34:17.104Z,97072.00
2023-02-11T01:34:27.104Z,97074.00
2023-02-11T01:34:37.110Z,97070.00
2023-02-11T01:34:47.146Z,97074.00
2023-02-11T01:34:57.145Z,97070.00
2023-02-11T01:35:07.147Z,97072.00
2023-02-11T01:35:17.157Z,97072.00
2023-02-11T01:35:27.158Z,97070.00
2023-02-11T01:35:37.164Z,97072.00
2023-02-11T01:35:47.182Z,97070.00
2023-02-11T01:35:57.195Z,97072.00
2023-02-11T01:36:07.185Z,97068.00
2023-02-11T01:36:17.218Z,97066.00
2023-02-11T01:36:27.311Z,97066.00
2023-02-11T01:36:37.228Z,97070.00
2023-02-11T01:36:47.303Z,97066.00
2023-02-11T01:36:57.232Z,97068.00
2023-02-11T01:37:07.280Z,97068.00
2023-02-11T01:37:17.284Z,97068.00
2023-02-11T01:37:27.247Z,97068.00
2023-02-11T01:37:37.265Z,97066.00
2023-02-11T01:37:47.281Z,97064.00
2023-02-11T01:37:57.442Z,97068.00
2023-02-11T01:38:07.282Z,97066.00
2023-02-11T01:38:17.340Z,97068.00
2023-02-11T01:38:27.337Z,97068.00
2023-02-11T01:38:37.313Z,97066.00
2023-02-11T01:38:47.346Z,97068.00
2023-02-11T01:38:57.376Z,97068.00
2023-02-11T01:39:07.355Z,97068.00
2023-02-11T01:39:17.496Z,97068.00
2023-02-11T01:39:27.480Z,97066.00
2023-02-11T01:39:37.464Z,97066.00
2023-02-11T01:39:47.463Z,97066.00
2023-02-11T01:39:57.493Z,97066.00
2023-02-11T01:40:07.453Z,97066.00
2023-02-11T01:40:17.523Z,97064.00
2023-02-11T01:40:27.469Z,97066.00
2023-02-11T01:40:37.480Z,97064.00
2023-02-11T01:40:47.462Z,97066.00
2023-02-11T01:40:57.473Z,97068.00
2023-02-11T01:41:07.474Z,97066.00
2023-02-11T01:41:17.467Z,97068.00
2023-02-11T01:41:27.472Z,97066.00
2023-02-11T01:41:37.481Z,97064.00
2023-02-11T01:41:47.534Z,97066.00
2023-02-11T01:41:57.500Z,97064.00
2023-02-11T01:42:07.488Z,97063.00
2023-02-11T01:42:17.520Z,97064.00
2023-02-11T01:42:27.502Z,97063.00
2023-02-11T01:42:37.515Z,97064.00
2023-02-11T01:42:49.438Z,97068.00
2023-02-11T01:42:57.596Z,97064.00
2023-02-11T01:43:07.572Z,97061.00
2023-02-11T01:43:17.581Z,97064.00
2023-02-11T01:43:27.610Z,97063.00
2023-02-11T01:43:37.555Z,97063.00
2023-02-11T01:43:47.579Z,97061.00
2023-02-11T01:43:57.583Z,97061.00
2023-02-11T01:44:07.552Z,97063.00
2023-02-11T01:44:17.560Z,97063.00
2023-02-11T01:44:27.577Z,97061.00
2023-02-11T01:44:37.560Z,97063.00
2023-02-11T01:44:47.591Z,97061.00
2023-02-11T01:44:57.584Z,97061.00
2023-02-11T01:45:07.572Z,97063.00
2023-02-11T01:45:17.569Z,97061.00
2023-02-11T01:45:27.597Z,97061.00
2023-02-11T01:45:37.567Z,97061.00
2023-02-11T01:45:47.602Z,97063.00
2023-02-11T01:45:57.570Z,97061.00
2023-02-11T01:46:07.608Z,97063.00
2023-02-11T01:46:17.589Z,97063.00
2023-02-11T01:46:27.619Z,97061.00
2023-02-11T01:46:37.658Z,97061.00
2023-02-11T01:46:47.632Z,97061.00
2023-02-11T01:46:57.627Z,97059.00
2023-02-11T01:47:07.554Z,97061.00
2023-02-11T01:47:17.562Z,97061.00
2023-02-11T01:47:27.556Z,97061.00
2023-02-11T01:47:37.564Z,97059.00
2023-02-11T01:47:47.578Z,97061.00
2023-02-11T01:47:57.574Z,97057.00
2023-02-11T01:48:07.564Z,97061.00
2023-02-11T01:48:17.577Z,97059.00
2023-02-11T01:48:27.580Z,97059.00
2023-02-11T01:48:37.556Z,97059.00
2023-02-11T01:48:47.601Z,97059.00
2023-02-11T01:48:57.664Z,97059.00
2023-02-11T01:49:07.618Z,97057.00
2023-02-11T01:49:17.667Z,97061.00
2023-02-11T01:49:27.644Z,97059.00
2023-02-11T01:49:37.647Z,97059.00
2023-02-11T01:49:47.607Z,97057.00
2023-02-11T01:49:57.643Z,97057.00
2023-02-11T01:50:07.637Z,97057.00
2023-02-11T01:50:17.636Z,97055.00
2023-02-11T01:50:27.686Z,97057.00
2023-02-11T01:50:37.664Z,97057.00
2023-02-11T01:50:47.676Z,97055.00
2023-02-11T01:50:57.680Z,97055.00
2023-02-11T01:51:07.697Z,97055.00
2023-02-11T01:51:17.692Z,97057.00
2023-02-11T01:51:27.704Z,97055.00
2023-02-11T01:51:37.705Z,97055.00
2023-02-11T01:51:47.704Z,97057.00
2023-02-11T01:51:57.799Z,97055.00
2023-02-11T01:52:07.765Z,97055.00
2023-02-11T01:52:17.742Z,97055.00
2023-02-11T01:52:27.750Z,97057.00
2023-02-11T01:52:37.749Z,97055.00
2023-02-11T01:52:47.755Z,97053.00
2023-02-11T01:52:57.795Z,97055.00
2023-02-11T01:53:07.784Z,97053.00
2023-02-11T01:53:17.795Z,97055.00
2023-02-11T01:53:27.814Z,97057.00
2023-02-11T01:53:37.810Z,97055.00
2023-02-11T01:53:47.855Z,97053.00
2023-02-11T01:53:57.853Z,97057.00
2023-02-11T01:54:07.819Z,97055.00
2023-02-11T01:54:17.808Z,97055.00
2023-02-11T01:54:27.884Z,97055.00
2023-02-11T01:54:37.884Z,97057.00
2023-02-11T01:54:47.866Z,97053.00
2023-02-11T01:54:57.874Z,97053.00
2023-02-11T01:55:07.869Z,97055.00
2023-02-11T01:55:17.886Z,97057.00
2023-02-11T01:55:27.909Z,97055.00
2023-02-11T01:55:37.886Z,97057.00
2023-02-11T01:55:48.331Z,97055.00
2023-02-11T01:55:57.905Z,97057.00
2023-02-11T01:56:07.901Z,97057.00
2023-02-11T01:56:17.904Z,97055.00
2023-02-11T01:56:27.903Z,97057.00
2023-02-11T01:56:37.927Z,97053.00
2023-02-11T01:56:47.899Z,97057.00
2023-02-11T01:56:57.973Z,97055.00
2023-02-11T01:57:07.911Z,97055.00
2023-02-11T01:57:17.933Z,97055.00
2023-02-11T01:57:27.933Z,97059.00